sensor_id;sensor_type;location;lat;lon;timestamp;P1;durP1;ratioP1;P2;durP2;ratioP2
77117;SDS011;66072;50.238;19.228;2024-01-30T00:02:02;96.80;;;51.40;;
77117;SDS011;66072;50.238;19.228;2024-01-30T00:04:30;91.80;;;44.80;;
77117;SDS011;66072;50.238;19.228;2024-01-30T00:06:58;98.10;;;48.50;;
77117;SDS011;66072;50.238;19.228;2024-01-30T00:09:26;90.20;;;46.40;;
77117;SDS011;66072;50.238;19.228;2024-01-30T00:11:53;103.50;;;55.10;;
77117;SDS011;66072;50.238;19.228;2024-01-30T00:14:21;100.10;;;51.00;;
77117;SDS011;66072;50.238;19.228;2024-01-30T00:16:50;103.40;;;51.10;;
77117;SDS011;66072;50.238;19.228;2024-01-30T00:19:18;94.30;;;49.40;;
77117;SDS011;66072;50.238;19.228;2024-01-30T00:21:46;90.20;;;49.60;;
77117;SDS011;66072;50.238;19.228;2024-01-30T00:24:14;101.60;;;53.20;;
77117;SDS011;66072;50.238;19.228;2024-01-30T00:26:42;112.60;;;57.60;;
77117;SDS011;66072;50.238;19.228;2024-01-30T00:29:10;103.80;;;53.50;;
77117;SDS011;66072;50.238;19.228;2024-01-30T00:31:37;102.70;;;54.20;;
77117;SDS011;66072;50.238;19.228;2024-01-30T00:34:08;90.90;;;52.90;;
77117;SDS011;66072;50.238;19.228;2024-01-30T00:36:36;102.40;;;53.50;;
77117;SDS011;66072;50.238;19.228;2024-01-30T00:39:04;95.30;;;50.50;;
77117;SDS011;66072;50.238;19.228;2024-01-30T00:41:32;95.70;;;52.00;;
77117;SDS011;66072;50.238;19.228;2024-01-30T00:44:00;95.90;;;49.60;;
77117;SDS011;66072;50.238;19.228;2024-01-30T00:46:27;95.40;;;49.40;;
77117;SDS011;66072;50.238;19.228;2024-01-30T00:48:55;97.30;;;52.20;;
77117;SDS011;66072;50.238;19.228;2024-01-30T00:51:23;92.20;;;47.70;;
77117;SDS011;66072;50.238;19.228;2024-01-30T00:53:50;91.10;;;49.00;;
77117;SDS011;66072;50.238;19.228;2024-01-30T00:56:18;87.00;;;47.10;;
77117;SDS011;66072;50.238;19.228;2024-01-30T00:58:46;95.70;;;49.50;;
77117;SDS011;66072;50.238;19.228;2024-01-30T01:01:14;92.90;;;51.10;;
77117;SDS011;66072;50.238;19.228;2024-01-30T01:03:42;105.90;;;52.70;;
77117;SDS011;66072;50.238;19.228;2024-01-30T01:06:10;107.20;;;56.20;;
77117;SDS011;66072;50.238;19.228;2024-01-30T01:08:38;98.70;;;54.60;;
77117;SDS011;66072;50.238;19.228;2024-01-30T01:11:06;100.50;;;53.40;;
77117;SDS011;66072;50.238;19.228;2024-01-30T01:13:33;106.70;;;56.20;;
77117;SDS011;66072;50.238;19.228;2024-01-30T01:16:01;96.00;;;53.20;;
77117;SDS011;66072;50.238;19.228;2024-01-30T01:18:29;104.60;;;53.00;;
77117;SDS011;66072;50.238;19.228;2024-01-30T01:20:57;91.70;;;46.70;;
77117;SDS011;66072;50.238;19.228;2024-01-30T01:23:25;90.20;;;47.00;;
77117;SDS011;66072;50.238;19.228;2024-01-30T01:25:53;94.60;;;49.90;;
77117;SDS011;66072;50.238;19.228;2024-01-30T01:28:22;85.60;;;46.40;;
77117;SDS011;66072;50.238;19.228;2024-01-30T01:30:50;88.60;;;47.40;;
77117;SDS011;66072;50.238;19.228;2024-01-30T01:33:18;89.40;;;47.30;;
77117;SDS011;66072;50.238;19.228;2024-01-30T01:35:45;84.40;;;44.30;;
77117;SDS011;66072;50.238;19.228;2024-01-30T01:38:13;81.90;;;44.00;;
77117;SDS011;66072;50.238;19.228;2024-01-30T01:40:41;87.80;;;45.90;;
77117;SDS011;66072;50.238;19.228;2024-01-30T01:43:09;83.70;;;46.80;;
77117;SDS011;66072;50.238;19.228;2024-01-30T01:45:37;89.40;;;48.80;;
77117;SDS011;66072;50.238;19.228;2024-01-30T01:48:04;73.50;;;39.60;;
77117;SDS011;66072;50.238;19.228;2024-01-30T01:50:33;87.80;;;45.60;;
77117;SDS011;66072;50.238;19.228;2024-01-30T01:53:01;73.90;;;39.40;;
77117;SDS011;66072;50.238;19.228;2024-01-30T01:55:29;78.30;;;39.30;;
77117;SDS011;66072;50.238;19.228;2024-01-30T01:57:58;71.20;;;38.30;;
77117;SDS011;66072;50.238;19.228;2024-01-30T02:00:26;75.40;;;38.20;;
77117;SDS011;66072;50.238;19.228;2024-01-30T02:02:54;72.40;;;37.70;;
77117;SDS011;66072;50.238;19.228;2024-01-30T02:05:22;65.50;;;34.30;;
77117;SDS011;66072;50.238;19.228;2024-01-30T02:07:50;70.30;;;36.10;;
77117;SDS011;66072;50.238;19.228;2024-01-30T02:10:18;62.00;;;32.70;;
77117;SDS011;66072;50.238;19.228;2024-01-30T02:12:46;69.20;;;34.90;;
77117;SDS011;66072;50.238;19.228;2024-01-30T02:15:14;65.30;;;35.60;;
77117;SDS011;66072;50.238;19.228;2024-01-30T02:17:42;79.90;;;39.40;;
77117;SDS011;66072;50.238;19.228;2024-01-30T02:20:10;72.40;;;39.20;;
77117;SDS011;66072;50.238;19.228;2024-01-30T02:22:38;75.60;;;40.00;;
77117;SDS011;66072;50.238;19.228;2024-01-30T02:25:08;77.20;;;39.80;;
77117;SDS011;66072;50.238;19.228;2024-01-30T02:27:35;76.40;;;39.50;;
77117;SDS011;66072;50.238;19.228;2024-01-30T02:30:03;81.30;;;37.30;;
77117;SDS011;66072;50.238;19.228;2024-01-30T02:32:32;77.80;;;42.00;;
77117;SDS011;66072;50.238;19.228;2024-01-30T02:34:59;63.90;;;34.20;;
77117;SDS011;66072;50.238;19.228;2024-01-30T02:37:27;75.70;;;40.00;;
77117;SDS011;66072;50.238;19.228;2024-01-30T02:39:55;79.20;;;39.80;;
77117;SDS011;66072;50.238;19.228;2024-01-30T02:42:23;70.90;;;39.50;;
77117;SDS011;66072;50.238;19.228;2024-01-30T02:44:50;65.70;;;35.70;;
77117;SDS011;66072;50.238;19.228;2024-01-30T02:47:18;64.80;;;35.30;;
77117;SDS011;66072;50.238;19.228;2024-01-30T02:49:46;55.60;;;29.00;;
77117;SDS011;66072;50.238;19.228;2024-01-30T02:52:14;57.60;;;32.80;;
77117;SDS011;66072;50.238;19.228;2024-01-30T02:54:42;56.60;;;28.20;;
77117;SDS011;66072;50.238;19.228;2024-01-30T02:57:09;46.90;;;25.10;;
77117;SDS011;66072;50.238;19.228;2024-01-30T02:59:37;55.70;;;29.00;;
77117;SDS011;66072;50.238;19.228;2024-01-30T03:02:05;46.20;;;25.40;;
77117;SDS011;66072;50.238;19.228;2024-01-30T03:04:33;51.50;;;27.40;;
77117;SDS011;66072;50.238;19.228;2024-01-30T03:07:00;44.20;;;25.00;;
77117;SDS011;66072;50.238;19.228;2024-01-30T03:09:28;54.90;;;29.00;;
77117;SDS011;66072;50.238;19.228;2024-01-30T03:11:56;57.60;;;29.80;;
77117;SDS011;66072;50.238;19.228;2024-01-30T03:14:24;44.70;;;25.90;;
77117;SDS011;66072;50.238;19.228;2024-01-30T03:16:51;57.40;;;29.60;;
77117;SDS011;66072;50.238;19.228;2024-01-30T03:19:19;62.10;;;29.70;;
77117;SDS011;66072;50.238;19.228;2024-01-30T03:21:47;49.90;;;28.70;;
77117;SDS011;66072;50.238;19.228;2024-01-30T03:24:15;58.30;;;30.00;;
77117;SDS011;66072;50.238;19.228;2024-01-30T03:26:43;56.20;;;29.00;;
77117;SDS011;66072;50.238;19.228;2024-01-30T03:29:11;58.20;;;30.00;;
77117;SDS011;66072;50.238;19.228;2024-01-30T03:31:39;56.10;;;29.50;;
77117;SDS011;66072;50.238;19.228;2024-01-30T03:34:07;53.10;;;29.30;;
77117;SDS011;66072;50.238;19.228;2024-01-30T03:36:35;51.10;;;26.80;;
77117;SDS011;66072;50.238;19.228;2024-01-30T03:39:02;57.50;;;30.10;;
77117;SDS011;66072;50.238;19.228;2024-01-30T03:41:30;48.10;;;25.70;;
77117;SDS011;66072;50.238;19.228;2024-01-30T03:43:58;44.80;;;26.10;;
77117;SDS011;66072;50.238;19.228;2024-01-30T03:46:26;50.30;;;25.90;;
77117;SDS011;66072;50.238;19.228;2024-01-30T03:48:54;51.30;;;25.20;;
77117;SDS011;66072;50.238;19.228;2024-01-30T03:51:21;48.00;;;24.10;;
77117;SDS011;66072;50.238;19.228;2024-01-30T03:53:49;52.30;;;27.40;;
77117;SDS011;66072;50.238;19.228;2024-01-30T03:56:17;45.90;;;27.20;;
77117;SDS011;66072;50.238;19.228;2024-01-30T03:58:44;47.20;;;25.30;;
77117;SDS011;66072;50.238;19.228;2024-01-30T04:01:15;50.70;;;27.80;;
77117;SDS011;66072;50.238;19.228;2024-01-30T04:03:43;52.50;;;28.70;;
77117;SDS011;66072;50.238;19.228;2024-01-30T04:06:10;34.30;;;19.60;;
77117;SDS011;66072;50.238;19.228;2024-01-30T04:08:39;43.00;;;22.40;;
77117;SDS011;66072;50.238;19.228;2024-01-30T04:11:07;39.60;;;21.50;;
77117;SDS011;66072;50.238;19.228;2024-01-30T04:13:34;42.10;;;21.60;;
77117;SDS011;66072;50.238;19.228;2024-01-30T04:16:02;40.60;;;22.60;;
77117;SDS011;66072;50.238;19.228;2024-01-30T04:18:30;48.30;;;24.10;;
77117;SDS011;66072;50.238;19.228;2024-01-30T04:20:58;44.30;;;24.80;;
77117;SDS011;66072;50.238;19.228;2024-01-30T04:23:25;38.00;;;19.90;;
77117;SDS011;66072;50.238;19.228;2024-01-30T04:25:53;45.40;;;26.20;;
77117;SDS011;66072;50.238;19.228;2024-01-30T04:28:21;48.80;;;27.00;;
77117;SDS011;66072;50.238;19.228;2024-01-30T04:30:48;37.80;;;20.30;;
77117;SDS011;66072;50.238;19.228;2024-01-30T04:33:16;47.00;;;24.20;;
77117;SDS011;66072;50.238;19.228;2024-01-30T04:35:44;40.10;;;21.60;;
77117;SDS011;66072;50.238;19.228;2024-01-30T04:38:12;42.30;;;22.50;;
77117;SDS011;66072;50.238;19.228;2024-01-30T04:40:40;37.00;;;20.90;;
77117;SDS011;66072;50.238;19.228;2024-01-30T04:43:08;46.50;;;24.40;;
77117;SDS011;66072;50.238;19.228;2024-01-30T04:45:35;38.50;;;22.40;;
77117;SDS011;66072;50.238;19.228;2024-01-30T04:48:03;36.20;;;19.40;;
77117;SDS011;66072;50.238;19.228;2024-01-30T04:50:31;39.30;;;21.40;;
77117;SDS011;66072;50.238;19.228;2024-01-30T04:52:59;35.20;;;21.00;;
77117;SDS011;66072;50.238;19.228;2024-01-30T04:55:27;39.80;;;23.00;;
77117;SDS011;66072;50.238;19.228;2024-01-30T04:57:54;39.10;;;22.70;;
77117;SDS011;66072;50.238;19.228;2024-01-30T05:00:22;47.80;;;23.40;;
77117;SDS011;66072;50.238;19.228;2024-01-30T05:02:50;37.10;;;19.70;;
77117;SDS011;66072;50.238;19.228;2024-01-30T05:05:17;38.60;;;20.60;;
77117;SDS011;66072;50.238;19.228;2024-01-30T05:07:45;42.20;;;23.40;;
77117;SDS011;66072;50.238;19.228;2024-01-30T05:10:13;36.00;;;20.70;;
77117;SDS011;66072;50.238;19.228;2024-01-30T05:12:41;36.60;;;19.30;;
77117;SDS011;66072;50.238;19.228;2024-01-30T05:15:09;42.80;;;23.50;;
77117;SDS011;66072;50.238;19.228;2024-01-30T05:17:37;31.90;;;17.40;;
77117;SDS011;66072;50.238;19.228;2024-01-30T05:20:05;34.30;;;20.50;;
77117;SDS011;66072;50.238;19.228;2024-01-30T05:22:33;41.50;;;21.20;;
77117;SDS011;66072;50.238;19.228;2024-01-30T05:25:01;43.10;;;24.90;;
77117;SDS011;66072;50.238;19.228;2024-01-30T05:27:28;45.40;;;25.80;;
77117;SDS011;66072;50.238;19.228;2024-01-30T05:29:56;44.60;;;27.10;;
77117;SDS011;66072;50.238;19.228;2024-01-30T05:32:24;44.60;;;22.10;;
77117;SDS011;66072;50.238;19.228;2024-01-30T05:34:52;39.50;;;21.50;;
77117;SDS011;66072;50.238;19.228;2024-01-30T05:37:19;41.00;;;24.00;;
77117;SDS011;66072;50.238;19.228;2024-01-30T05:39:47;43.00;;;23.30;;
77117;SDS011;66072;50.238;19.228;2024-01-30T05:42:15;38.50;;;20.90;;
77117;SDS011;66072;50.238;19.228;2024-01-30T05:44:43;35.80;;;20.90;;
77117;SDS011;66072;50.238;19.228;2024-01-30T05:47:11;38.60;;;19.80;;
77117;SDS011;66072;50.238;19.228;2024-01-30T05:49:38;39.30;;;23.40;;
77117;SDS011;66072;50.238;19.228;2024-01-30T05:52:06;43.90;;;24.20;;
77117;SDS011;66072;50.238;19.228;2024-01-30T05:54:34;47.60;;;26.10;;
77117;SDS011;66072;50.238;19.228;2024-01-30T05:57:01;55.00;;;28.40;;
77117;SDS011;66072;50.238;19.228;2024-01-30T05:59:29;46.90;;;27.20;;
77117;SDS011;66072;50.238;19.228;2024-01-30T06:01:57;47.30;;;25.10;;
77117;SDS011;66072;50.238;19.228;2024-01-30T06:04:25;58.90;;;28.60;;
77117;SDS011;66072;50.238;19.228;2024-01-30T06:06:53;63.40;;;29.90;;
77117;SDS011;66072;50.238;19.228;2024-01-30T06:09:21;51.40;;;25.80;;
77117;SDS011;66072;50.238;19.228;2024-01-30T06:11:49;52.70;;;31.10;;
77117;SDS011;66072;50.238;19.228;2024-01-30T06:14:16;53.10;;;29.30;;
77117;SDS011;66072;50.238;19.228;2024-01-30T06:16:44;45.40;;;24.50;;
77117;SDS011;66072;50.238;19.228;2024-01-30T06:19:12;39.40;;;22.00;;
77117;SDS011;66072;50.238;19.228;2024-01-30T06:21:40;38.20;;;20.20;;
77117;SDS011;66072;50.238;19.228;2024-01-30T06:24:07;36.90;;;21.90;;
77117;SDS011;66072;50.238;19.228;2024-01-30T06:26:35;40.90;;;20.50;;
77117;SDS011;66072;50.238;19.228;2024-01-30T06:29:03;40.30;;;24.60;;
77117;SDS011;66072;50.238;19.228;2024-01-30T06:31:31;38.30;;;21.80;;
77117;SDS011;66072;50.238;19.228;2024-01-30T06:33:58;34.60;;;19.60;;
77117;SDS011;66072;50.238;19.228;2024-01-30T06:36:26;43.20;;;20.40;;
77117;SDS011;66072;50.238;19.228;2024-01-30T06:38:54;43.70;;;24.10;;
77117;SDS011;66072;50.238;19.228;2024-01-30T06:41:22;30.80;;;19.60;;
77117;SDS011;66072;50.238;19.228;2024-01-30T06:43:50;39.20;;;19.80;;
77117;SDS011;66072;50.238;19.228;2024-01-30T06:46:17;34.50;;;21.20;;
77117;SDS011;66072;50.238;19.228;2024-01-30T06:48:45;50.90;;;26.70;;
77117;SDS011;66072;50.238;19.228;2024-01-30T06:51:13;38.30;;;23.20;;
77117;SDS011;66072;50.238;19.228;2024-01-30T06:53:44;46.80;;;27.40;;
77117;SDS011;66072;50.238;19.228;2024-01-30T06:56:12;46.00;;;24.40;;
77117;SDS011;66072;50.238;19.228;2024-01-30T06:58:39;40.90;;;21.90;;
77117;SDS011;66072;50.238;19.228;2024-01-30T07:01:07;49.00;;;26.60;;
77117;SDS011;66072;50.238;19.228;2024-01-30T07:03:35;39.70;;;22.90;;
77117;SDS011;66072;50.238;19.228;2024-01-30T07:06:03;44.70;;;24.80;;
77117;SDS011;66072;50.238;19.228;2024-01-30T07:08:31;48.20;;;24.60;;
77117;SDS011;66072;50.238;19.228;2024-01-30T07:10:58;49.70;;;28.00;;
77117;SDS011;66072;50.238;19.228;2024-01-30T07:13:27;47.50;;;27.80;;
77117;SDS011;66072;50.238;19.228;2024-01-30T07:15:55;43.60;;;24.20;;
77117;SDS011;66072;50.238;19.228;2024-01-30T07:18:23;45.60;;;23.20;;
77117;SDS011;66072;50.238;19.228;2024-01-30T07:20:51;52.90;;;27.90;;
77117;SDS011;66072;50.238;19.228;2024-01-30T07:23:18;47.60;;;28.40;;
77117;SDS011;66072;50.238;19.228;2024-01-30T07:25:46;47.40;;;28.80;;
77117;SDS011;66072;50.238;19.228;2024-01-30T07:28:16;47.40;;;28.30;;
77117;SDS011;66072;50.238;19.228;2024-01-30T07:30:44;37.10;;;20.20;;
77117;SDS011;66072;50.238;19.228;2024-01-30T07:33:12;39.10;;;23.90;;
77117;SDS011;66072;50.238;19.228;2024-01-30T07:35:40;55.00;;;31.40;;
77117;SDS011;66072;50.238;19.228;2024-01-30T07:38:08;41.10;;;24.50;;
77117;SDS011;66072;50.238;19.228;2024-01-30T07:40:36;43.20;;;24.50;;
77117;SDS011;66072;50.238;19.228;2024-01-30T07:43:04;44.40;;;25.70;;
77117;SDS011;66072;50.238;19.228;2024-01-30T07:45:31;37.90;;;22.50;;
77117;SDS011;66072;50.238;19.228;2024-01-30T07:47:59;48.40;;;27.50;;
77117;SDS011;66072;50.238;19.228;2024-01-30T07:50:27;49.60;;;26.60;;
77117;SDS011;66072;50.238;19.228;2024-01-30T07:52:59;48.30;;;28.40;;
77117;SDS011;66072;50.238;19.228;2024-01-30T07:55:27;39.70;;;26.20;;
77117;SDS011;66072;50.238;19.228;2024-01-30T07:57:55;47.40;;;25.60;;
77117;SDS011;66072;50.238;19.228;2024-01-30T08:00:23;39.90;;;23.40;;
77117;SDS011;66072;50.238;19.228;2024-01-30T08:02:51;46.90;;;26.00;;
77117;SDS011;66072;50.238;19.228;2024-01-30T08:05:19;42.30;;;25.70;;
77117;SDS011;66072;50.238;19.228;2024-01-30T08:07:46;48.90;;;26.00;;
77117;SDS011;66072;50.238;19.228;2024-01-30T08:10:15;43.20;;;24.00;;
77117;SDS011;66072;50.238;19.228;2024-01-30T08:12:43;45.20;;;26.40;;
77117;SDS011;66072;50.238;19.228;2024-01-30T08:15:11;52.50;;;28.40;;
77117;SDS011;66072;50.238;19.228;2024-01-30T08:17:39;51.90;;;28.00;;
77117;SDS011;66072;50.238;19.228;2024-01-30T08:20:07;43.80;;;24.00;;
77117;SDS011;66072;50.238;19.228;2024-01-30T08:22:37;36.30;;;20.90;;
77117;SDS011;66072;50.238;19.228;2024-01-30T08:25:06;37.50;;;21.60;;
77117;SDS011;66072;50.238;19.228;2024-01-30T08:27:34;41.30;;;23.70;;
77117;SDS011;66072;50.238;19.228;2024-01-30T08:30:02;38.60;;;22.60;;
77117;SDS011;66072;50.238;19.228;2024-01-30T08:32:30;40.00;;;24.10;;
77117;SDS011;66072;50.238;19.228;2024-01-30T08:34:58;38.90;;;22.60;;
77117;SDS011;66072;50.238;19.228;2024-01-30T08:37:26;31.10;;;17.80;;
77117;SDS011;66072;50.238;19.228;2024-01-30T08:39:54;40.10;;;22.30;;
77117;SDS011;66072;50.238;19.228;2024-01-30T08:42:21;35.00;;;19.00;;
77117;SDS011;66072;50.238;19.228;2024-01-30T08:44:50;38.70;;;21.20;;
77117;SDS011;66072;50.238;19.228;2024-01-30T08:47:18;38.70;;;23.30;;
77117;SDS011;66072;50.238;19.228;2024-01-30T08:49:45;34.60;;;19.50;;
77117;SDS011;66072;50.238;19.228;2024-01-30T08:52:13;31.80;;;18.40;;
77117;SDS011;66072;50.238;19.228;2024-01-30T08:54:41;35.00;;;21.50;;
77117;SDS011;66072;50.238;19.228;2024-01-30T08:57:09;43.30;;;23.50;;
77117;SDS011;66072;50.238;19.228;2024-01-30T08:59:36;37.40;;;21.70;;
77117;SDS011;66072;50.238;19.228;2024-01-30T09:02:04;33.20;;;19.40;;
77117;SDS011;66072;50.238;19.228;2024-01-30T09:04:39;30.40;;;19.70;;
77117;SDS011;66072;50.238;19.228;2024-01-30T09:07:08;31.40;;;19.20;;
77117;SDS011;66072;50.238;19.228;2024-01-30T09:09:38;28.80;;;19.20;;
77117;SDS011;66072;50.238;19.228;2024-01-30T09:12:06;32.40;;;20.80;;
77117;SDS011;66072;50.238;19.228;2024-01-30T09:14:34;35.80;;;21.40;;
77117;SDS011;66072;50.238;19.228;2024-01-30T09:17:02;29.10;;;17.90;;
77117;SDS011;66072;50.238;19.228;2024-01-30T09:19:30;35.00;;;22.80;;
77117;SDS011;66072;50.238;19.228;2024-01-30T09:21:58;33.80;;;20.90;;
77117;SDS011;66072;50.238;19.228;2024-01-30T09:24:26;31.80;;;18.10;;
77117;SDS011;66072;50.238;19.228;2024-01-30T09:26:54;35.90;;;20.40;;
77117;SDS011;66072;50.238;19.228;2024-01-30T09:29:22;29.50;;;19.30;;
77117;SDS011;66072;50.238;19.228;2024-01-30T09:31:50;31.10;;;18.70;;
77117;SDS011;66072;50.238;19.228;2024-01-30T09:34:18;28.80;;;17.60;;
77117;SDS011;66072;50.238;19.228;2024-01-30T09:36:46;32.20;;;20.20;;
77117;SDS011;66072;50.238;19.228;2024-01-30T09:39:14;31.20;;;18.80;;
77117;SDS011;66072;50.238;19.228;2024-01-30T09:41:45;34.60;;;20.20;;
77117;SDS011;66072;50.238;19.228;2024-01-30T09:44:16;35.50;;;21.00;;
77117;SDS011;66072;50.238;19.228;2024-01-30T09:46:44;42.00;;;22.20;;
77117;SDS011;66072;50.238;19.228;2024-01-30T09:49:14;29.20;;;17.60;;
77117;SDS011;66072;50.238;19.228;2024-01-30T09:51:45;37.50;;;21.60;;
77117;SDS011;66072;50.238;19.228;2024-01-30T09:54:14;38.70;;;22.70;;
77117;SDS011;66072;50.238;19.228;2024-01-30T09:56:43;34.60;;;18.30;;
77117;SDS011;66072;50.238;19.228;2024-01-30T09:59:11;30.00;;;20.20;;
77117;SDS011;66072;50.238;19.228;2024-01-30T10:01:39;28.50;;;19.40;;
77117;SDS011;66072;50.238;19.228;2024-01-30T10:04:07;31.60;;;19.40;;
77117;SDS011;66072;50.238;19.228;2024-01-30T10:06:37;31.90;;;20.00;;
77117;SDS011;66072;50.238;19.228;2024-01-30T10:09:04;35.50;;;21.40;;
77117;SDS011;66072;50.238;19.228;2024-01-30T10:11:32;29.90;;;20.10;;
77117;SDS011;66072;50.238;19.228;2024-01-30T10:14:00;27.10;;;17.20;;
77117;SDS011;66072;50.238;19.228;2024-01-30T10:16:28;26.30;;;17.90;;
77117;SDS011;66072;50.238;19.228;2024-01-30T10:18:56;22.60;;;14.20;;
77117;SDS011;66072;50.238;19.228;2024-01-30T10:21:24;27.30;;;16.60;;
77117;SDS011;66072;50.238;19.228;2024-01-30T10:23:51;29.70;;;16.90;;
77117;SDS011;66072;50.238;19.228;2024-01-30T10:26:19;28.90;;;16.80;;
77117;SDS011;66072;50.238;19.228;2024-01-30T10:28:48;29.20;;;15.70;;
77117;SDS011;66072;50.238;19.228;2024-01-30T10:31:16;26.60;;;15.60;;
77117;SDS011;66072;50.238;19.228;2024-01-30T10:33:44;26.90;;;17.20;;
77117;SDS011;66072;50.238;19.228;2024-01-30T10:36:13;26.60;;;17.30;;
77117;SDS011;66072;50.238;19.228;2024-01-30T10:38:45;22.50;;;14.70;;
77117;SDS011;66072;50.238;19.228;2024-01-30T10:41:15;25.30;;;15.30;;
77117;SDS011;66072;50.238;19.228;2024-01-30T10:43:58;24.90;;;14.50;;
77117;SDS011;66072;50.238;19.228;2024-01-30T10:46:31;24.20;;;14.30;;
77117;SDS011;66072;50.238;19.228;2024-01-30T10:48:59;23.60;;;13.80;;
77117;SDS011;66072;50.238;19.228;2024-01-30T10:51:28;27.20;;;15.60;;
77117;SDS011;66072;50.238;19.228;2024-01-30T10:53:56;22.10;;;13.10;;
77117;SDS011;66072;50.238;19.228;2024-01-30T10:56:25;25.90;;;15.70;;
77117;SDS011;66072;50.238;19.228;2024-01-30T10:58:53;26.90;;;15.60;;
77117;SDS011;66072;50.238;19.228;2024-01-30T11:01:22;25.80;;;16.60;;
77117;SDS011;66072;50.238;19.228;2024-01-30T11:03:51;24.40;;;14.60;;
77117;SDS011;66072;50.238;19.228;2024-01-30T11:06:23;21.50;;;13.90;;
77117;SDS011;66072;50.238;19.228;2024-01-30T11:09:02;20.20;;;12.40;;
77117;SDS011;66072;50.238;19.228;2024-01-30T11:11:30;23.80;;;13.90;;
77117;SDS011;66072;50.238;19.228;2024-01-30T11:14:00;21.90;;;12.70;;
77117;SDS011;66072;50.238;19.228;2024-01-30T11:16:30;23.40;;;13.40;;
77117;SDS011;66072;50.238;19.228;2024-01-30T11:19:00;21.20;;;12.30;;
77117;SDS011;66072;50.238;19.228;2024-01-30T11:21:28;20.90;;;12.20;;
77117;SDS011;66072;50.238;19.228;2024-01-30T11:23:56;23.90;;;12.70;;
77117;SDS011;66072;50.238;19.228;2024-01-30T11:26:27;17.70;;;10.60;;
77117;SDS011;66072;50.238;19.228;2024-01-30T11:28:55;16.70;;;11.10;;
77117;SDS011;66072;50.238;19.228;2024-01-30T11:31:23;16.40;;;10.00;;
77117;SDS011;66072;50.238;19.228;2024-01-30T11:33:52;18.80;;;10.00;;
77117;SDS011;66072;50.238;19.228;2024-01-30T11:36:21;21.00;;;10.40;;
77117;SDS011;66072;50.238;19.228;2024-01-30T11:38:53;14.00;;;8.20;;
77117;SDS011;66072;50.238;19.228;2024-01-30T11:41:22;24.40;;;12.00;;
77117;SDS011;66072;50.238;19.228;2024-01-30T11:43:51;16.90;;;9.10;;
77117;SDS011;66072;50.238;19.228;2024-01-30T11:46:20;18.50;;;10.40;;
77117;SDS011;66072;50.238;19.228;2024-01-30T11:48:48;15.90;;;9.80;;
77117;SDS011;66072;50.238;19.228;2024-01-30T11:51:15;15.20;;;8.70;;
77117;SDS011;66072;50.238;19.228;2024-01-30T11:53:44;14.10;;;8.20;;
77117;SDS011;66072;50.238;19.228;2024-01-30T11:56:12;13.60;;;8.50;;
77117;SDS011;66072;50.238;19.228;2024-01-30T11:58:42;16.50;;;8.90;;
77117;SDS011;66072;50.238;19.228;2024-01-30T12:01:10;12.00;;;7.80;;
77117;SDS011;66072;50.238;19.228;2024-01-30T12:03:39;11.80;;;6.60;;
77117;SDS011;66072;50.238;19.228;2024-01-30T12:06:06;13.30;;;6.30;;
77117;SDS011;66072;50.238;19.228;2024-01-30T12:08:34;11.20;;;7.10;;
77117;SDS011;66072;50.238;19.228;2024-01-30T12:11:02;9.50;;;6.30;;
77117;SDS011;66072;50.238;19.228;2024-01-30T12:13:30;9.70;;;5.90;;
77117;SDS011;66072;50.238;19.228;2024-01-30T12:16:00;9.80;;;5.50;;
77117;SDS011;66072;50.238;19.228;2024-01-30T12:18:29;10.30;;;6.10;;
77117;SDS011;66072;50.238;19.228;2024-01-30T12:21:07;10.30;;;5.00;;
77117;SDS011;66072;50.238;19.228;2024-01-30T12:23:35;8.50;;;4.80;;
77117;SDS011;66072;50.238;19.228;2024-01-30T12:26:03;9.20;;;5.60;;
77117;SDS011;66072;50.238;19.228;2024-01-30T12:28:31;9.50;;;5.30;;
77117;SDS011;66072;50.238;19.228;2024-01-30T12:31:05;8.80;;;5.90;;
77117;SDS011;66072;50.238;19.228;2024-01-30T12:33:33;8.20;;;5.40;;
77117;SDS011;66072;50.238;19.228;2024-01-30T12:38:31;11.80;;;5.30;;
77117;SDS011;66072;50.238;19.228;2024-01-30T12:40:59;10.30;;;5.30;;
77117;SDS011;66072;50.238;19.228;2024-01-30T12:43:27;9.90;;;5.20;;
77117;SDS011;66072;50.238;19.228;2024-01-30T12:46:05;9.70;;;5.70;;
77117;SDS011;66072;50.238;19.228;2024-01-30T12:48:33;10.20;;;5.80;;
77117;SDS011;66072;50.238;19.228;2024-01-30T12:51:01;8.50;;;5.10;;
77117;SDS011;66072;50.238;19.228;2024-01-30T12:53:29;10.40;;;5.80;;
77117;SDS011;66072;50.238;19.228;2024-01-30T12:55:57;10.10;;;5.50;;
77117;SDS011;66072;50.238;19.228;2024-01-30T12:58:25;11.00;;;6.20;;
77117;SDS011;66072;50.238;19.228;2024-01-30T13:00:53;12.30;;;6.40;;
77117;SDS011;66072;50.238;19.228;2024-01-30T13:03:22;10.90;;;6.30;;
77117;SDS011;66072;50.238;19.228;2024-01-30T13:05:50;10.90;;;6.10;;
77117;SDS011;66072;50.238;19.228;2024-01-30T13:08:18;10.70;;;5.30;;
77117;SDS011;66072;50.238;19.228;2024-01-30T13:10:46;8.90;;;5.50;;
77117;SDS011;66072;50.238;19.228;2024-01-30T13:13:16;10.90;;;6.30;;
77117;SDS011;66072;50.238;19.228;2024-01-30T13:15:47;8.60;;;5.20;;
77117;SDS011;66072;50.238;19.228;2024-01-30T13:18:16;10.10;;;5.60;;
77117;SDS011;66072;50.238;19.228;2024-01-30T13:20:44;8.70;;;4.90;;
77117;SDS011;66072;50.238;19.228;2024-01-30T13:23:11;10.30;;;5.90;;
77117;SDS011;66072;50.238;19.228;2024-01-30T13:25:39;9.40;;;5.20;;
77117;SDS011;66072;50.238;19.228;2024-01-30T13:28:07;11.50;;;5.80;;
77117;SDS011;66072;50.238;19.228;2024-01-30T13:30:35;8.40;;;5.70;;
77117;SDS011;66072;50.238;19.228;2024-01-30T13:33:03;10.10;;;6.20;;
77117;SDS011;66072;50.238;19.228;2024-01-30T13:35:31;9.60;;;6.20;;
77117;SDS011;66072;50.238;19.228;2024-01-30T13:37:58;13.90;;;7.50;;
77117;SDS011;66072;50.238;19.228;2024-01-30T13:40:26;13.20;;;7.90;;
77117;SDS011;66072;50.238;19.228;2024-01-30T13:42:54;11.40;;;7.60;;
77117;SDS011;66072;50.238;19.228;2024-01-30T13:45:22;10.60;;;7.40;;
77117;SDS011;66072;50.238;19.228;2024-01-30T13:47:50;11.10;;;7.70;;
77117;SDS011;66072;50.238;19.228;2024-01-30T13:50:19;11.90;;;7.60;;
77117;SDS011;66072;50.238;19.228;2024-01-30T13:52:46;13.40;;;9.00;;
77117;SDS011;66072;50.238;19.228;2024-01-30T13:55:14;12.10;;;7.80;;
77117;SDS011;66072;50.238;19.228;2024-01-30T13:57:42;11.60;;;7.60;;
77117;SDS011;66072;50.238;19.228;2024-01-30T14:00:10;11.20;;;7.30;;
77117;SDS011;66072;50.238;19.228;2024-01-30T14:02:38;10.10;;;6.90;;
77117;SDS011;66072;50.238;19.228;2024-01-30T14:05:06;11.00;;;7.60;;
77117;SDS011;66072;50.238;19.228;2024-01-30T14:07:35;14.30;;;7.00;;
77117;SDS011;66072;50.238;19.228;2024-01-30T14:10:04;10.10;;;6.90;;
77117;SDS011;66072;50.238;19.228;2024-01-30T14:12:38;11.90;;;8.60;;
77117;SDS011;66072;50.238;19.228;2024-01-30T14:15:07;14.20;;;8.30;;
77117;SDS011;66072;50.238;19.228;2024-01-30T14:17:50;10.70;;;7.20;;
77117;SDS011;66072;50.238;19.228;2024-01-30T14:20:18;10.10;;;6.90;;